createdAt,value
2022-09-26T00:00:09.361Z,42.92
2022-09-26T00:02:36.025Z,43.35
2022-09-26T00:05:02.744Z,42.08
2022-09-26T00:07:29.334Z,41.30
2022-09-26T00:09:55.940Z,41.00
2022-09-26T00:12:22.533Z,39.35
2022-09-26T00:14:49.030Z,40.03
2022-09-26T00:17:15.634Z,38.28
2022-09-26T00:19:42.172Z,37.90
2022-09-26T00:22:08.757Z,35.97
2022-09-26T00:24:35.553Z,34.55
2022-09-26T00:27:02.096Z,33.55
2022-09-26T00:29:28.617Z,35.10
2022-09-26T00:31:55.097Z,34.00
2022-09-26T00:34:21.624Z,35.13
2022-09-26T00:36:48.219Z,35.17
2022-09-26T00:39:15.985Z,34.28
2022-09-26T00:41:43.349Z,35.30
2022-09-26T00:44:34.843Z,35.47
2022-09-26T00:47:01.881Z,33.50
2022-09-26T00:49:37.618Z,33.53
2022-09-26T00:52:12.873Z,35.58
2022-09-26T00:54:45.360Z,33.45
2022-09-26T00:57:24.763Z,33.58
2022-09-26T00:59:57.459Z,33.85
2022-09-26T01:02:27.052Z,34.80
2022-09-26T01:04:55.359Z,33.13
2022-09-26T01:07:25.974Z,33.38
2022-09-26T01:09:53.016Z,32.42
2022-09-26T01:12:21.185Z,34.75
2022-09-26T01:14:50.676Z,32.15
2022-09-26T01:17:17.667Z,33.70
2022-09-26T01:20:21.971Z,33.58
2022-09-26T01:23:20.359Z,31.60
2022-09-26T01:26:26.513Z,31.52
2022-09-26T01:29:15.793Z,32.35
2022-09-26T01:32:06.780Z,31.75
2022-09-26T01:34:50.839Z,30.00
2022-09-26T01:37:39.489Z,31.95
2022-09-26T01:40:17.816Z,30.70
2022-09-26T01:43:00.124Z,31.00
2022-09-26T01:45:34.075Z,29.92
2022-09-26T01:48:33.749Z,30.80
2022-09-26T01:51:05.211Z,31.38
2022-09-26T01:53:40.227Z,31.77
2022-09-26T01:56:12.652Z,32.25
2022-09-26T01:58:48.077Z,32.13
2022-09-26T02:01:18.744Z,31.13
2022-09-26T02:03:49.743Z,31.20
2022-09-26T02:06:24.483Z,30.90
2022-09-26T02:08:57.607Z,30.70
2022-09-26T02:11:26.392Z,30.25
2022-09-26T02:13:59.587Z,32.13
2022-09-26T02:16:31.929Z,31.33
2022-09-26T02:19:13.648Z,30.83
2022-09-26T02:21:42.556Z,32.05
2022-09-26T02:24:09.142Z,30.98
2022-09-26T02:26:35.797Z,32.03
2022-09-26T02:29:02.425Z,30.48
2022-09-26T02:31:34.192Z,29.55
2022-09-26T02:34:03.351Z,28.52
2022-09-26T02:36:33.115Z,27.35
2022-09-26T02:39:00.097Z,29.35
2022-09-26T02:41:41.856Z,28.15
2022-09-26T02:44:39.189Z,29.27
2022-09-26T02:47:39.820Z,28.20
2022-09-26T02:50:40.529Z,26.42
2022-09-26T02:53:10.281Z,24.77
2022-09-26T02:55:45.887Z,25.90
2022-09-26T02:58:21.292Z,25.80
2022-09-26T03:01:03.938Z,24.85
2022-09-26T03:03:51.065Z,25.25
2022-09-26T03:06:22.903Z,25.75
2022-09-26T03:11:24.000Z,24.52
2022-09-26T03:13:53.602Z,23.77
2022-09-26T03:16:22.503Z,24.70
2022-09-26T03:18:54.553Z,23.80
2022-09-26T03:21:21.681Z,23.25
2022-09-26T03:23:49.163Z,23.38
2022-09-26T03:26:24.651Z,23.17
2022-09-26T03:28:52.385Z,22.95
2022-09-26T03:31:22.331Z,22.45
2022-09-26T03:33:49.160Z,24.55
2022-09-26T03:36:16.036Z,21.52
2022-09-26T03:38:42.779Z,23.08
2022-09-26T03:41:09.765Z,21.73
2022-09-26T03:43:36.843Z,22.15
2022-09-26T03:46:07.549Z,20.67
2022-09-26T03:48:34.675Z,21.73
2022-09-26T03:51:09.535Z,20.60
2022-09-26T03:53:38.499Z,21.23
2022-09-26T03:56:08.429Z,21.27
2022-09-26T03:58:35.308Z,19.75
2022-09-26T04:01:10.978Z,21.10
2022-09-26T04:03:39.493Z,20.13
2022-09-26T04:06:10.911Z,20.85
2022-09-26T04:08:38.973Z,21.00
2022-09-26T04:11:11.695Z,21.05
2022-09-26T04:13:51.213Z,20.70
2022-09-26T04:16:20.283Z,20.17
2022-09-26T04:18:47.148Z,21.75
2022-09-26T04:21:14.486Z,20.40
2022-09-26T04:23:42.882Z,20.83
2022-09-26T04:26:20.131Z,20.05
2022-09-26T04:28:49.503Z,20.50
2022-09-26T04:31:16.107Z,18.98
2022-09-26T04:33:42.655Z,19.17
2022-09-26T04:36:11.687Z,19.33
2022-09-26T04:38:39.325Z,19.30
2022-09-26T04:41:13.823Z,18.65
2022-09-26T04:43:41.046Z,19.65
2022-09-26T04:46:18.563Z,20.70
2022-09-26T04:48:47.945Z,20.20
2022-09-26T04:51:16.931Z,20.58
2022-09-26T04:53:44.184Z,20.65
2022-09-26T04:56:14.010Z,21.35
2022-09-26T04:58:42.352Z,20.13
2022-09-26T05:01:17.372Z,20.05
2022-09-26T05:03:44.307Z,20.75
2022-09-26T05:06:12.379Z,27.15
2022-09-26T05:08:41.383Z,21.20
2022-09-26T05:11:09.433Z,19.65
2022-09-26T05:13:37.802Z,19.58
2022-09-26T05:16:06.325Z,20.00
2022-09-26T05:18:33.776Z,20.40
2022-09-26T05:21:01.420Z,19.35
2022-09-26T05:23:46.732Z,28.27
2022-09-26T05:26:23.324Z,33.55
2022-09-26T05:28:55.510Z,25.35
2022-09-26T05:31:39.478Z,21.98
2022-09-26T05:34:19.231Z,20.90
2022-09-26T05:36:48.667Z,19.27
2022-09-26T05:39:35.876Z,18.23
2022-09-26T05:42:06.593Z,17.90
2022-09-26T05:44:33.600Z,19.38
2022-09-26T05:47:00.506Z,18.60
2022-09-26T05:49:27.833Z,16.60
2022-09-26T05:51:54.635Z,17.23
2022-09-26T05:54:21.178Z,16.63
2022-09-26T05:56:48.362Z,17.42
2022-09-26T05:59:14.953Z,16.42
2022-09-26T06:01:41.595Z,16.40
2022-09-26T06:04:10.281Z,15.30
2022-09-26T06:06:36.865Z,15.50
2022-09-26T06:09:03.921Z,13.65
2022-09-26T06:11:33.241Z,14.85
2022-09-26T06:14:00.770Z,15.73
2022-09-26T06:16:28.147Z,14.60
2022-09-26T06:18:55.927Z,15.48
2022-09-26T06:21:23.456Z,15.50
2022-09-26T06:23:50.085Z,15.05
2022-09-26T06:26:21.880Z,15.70
2022-09-26T06:31:18.915Z,17.00
2022-09-26T06:33:50.427Z,16.88
2022-09-26T06:36:17.159Z,16.83
2022-09-26T06:38:43.654Z,17.17
2022-09-26T06:41:10.223Z,17.75
2022-09-26T06:43:36.988Z,18.95
2022-09-26T06:46:08.347Z,18.05
2022-09-26T06:48:35.444Z,19.10
2022-09-26T06:51:02.016Z,20.00
2022-09-26T06:53:28.857Z,20.10
2022-09-26T06:55:55.419Z,19.42
2022-09-26T06:58:22.014Z,20.90
2022-09-26T07:00:48.704Z,18.48
2022-09-26T07:03:16.043Z,19.33
2022-09-26T07:05:44.864Z,19.27
2022-09-26T07:08:13.634Z,18.70
2022-09-26T07:10:40.192Z,18.92
2022-09-26T07:13:09.464Z,18.90
2022-09-26T07:15:37.528Z,18.63
2022-09-26T07:18:06.486Z,19.30
2022-09-26T07:20:36.821Z,20.45
2022-09-26T07:23:05.031Z,21.45
2022-09-26T07:25:33.279Z,18.65
2022-09-26T07:28:00.327Z,18.58
2022-09-26T07:30:28.295Z,17.75
2022-09-26T07:33:05.381Z,18.90
2022-09-26T07:35:33.860Z,19.40
2022-09-26T07:38:00.450Z,18.05
2022-09-26T07:40:27.642Z,18.55
2022-09-26T07:43:18.734Z,19.38
2022-09-26T07:46:06.165Z,19.40
2022-09-26T07:48:58.668Z,17.70
2022-09-26T07:51:25.221Z,17.15
2022-09-26T07:53:52.629Z,17.40
2022-09-26T07:56:19.192Z,16.48
2022-09-26T07:58:46.427Z,17.83
2022-09-26T08:01:15.126Z,15.98
2022-09-26T08:03:43.702Z,15.32
2022-09-26T08:06:12.976Z,15.43
2022-09-26T08:08:43.808Z,15.48
2022-09-26T08:11:18.234Z,15.00
2022-09-26T08:13:45.360Z,15.68
2022-09-26T08:16:19.354Z,16.20
2022-09-26T08:18:47.078Z,14.38
2022-09-26T08:21:14.345Z,14.68
2022-09-26T08:23:41.632Z,14.68
2022-09-26T08:26:08.466Z,14.38
2022-09-26T08:28:37.717Z,14.93
2022-09-26T08:31:05.767Z,18.20
2022-09-26T08:33:35.278Z,17.55
2022-09-26T08:36:10.218Z,19.08
2022-09-26T08:38:37.851Z,19.88
2022-09-26T08:41:13.525Z,20.55
2022-09-26T08:44:12.388Z,19.83
2022-09-26T08:47:34.356Z,19.38
2022-09-26T08:50:09.550Z,21.42
2022-09-26T08:52:58.408Z,19.85
2022-09-26T08:55:33.123Z,20.98
2022-09-26T08:58:07.096Z,21.38
2022-09-26T09:00:38.275Z,21.88
2022-09-26T09:03:11.042Z,22.20
2022-09-26T09:05:42.123Z,20.63
2022-09-26T09:08:17.392Z,20.50
2022-09-26T09:11:12.754Z,19.38
2022-09-26T09:14:00.677Z,19.95
2022-09-26T09:16:42.141Z,19.65
2022-09-26T09:19:17.368Z,19.25
2022-09-26T09:21:59.161Z,20.25
2022-09-26T09:30:22.678Z,18.50
2022-09-26T09:32:53.683Z,17.77
2022-09-26T09:35:27.901Z,16.63
2022-09-26T09:37:55.083Z,17.00
2022-09-26T09:40:30.256Z,15.52
2022-09-26T09:43:26.762Z,15.27
2022-09-26T09:46:01.660Z,15.40
2022-09-26T09:48:28.498Z,14.20
2022-09-26T09:51:06.226Z,16.27
2022-09-26T09:53:35.717Z,16.58
2022-09-26T09:56:45.434Z,13.55
2022-09-26T09:59:22.139Z,15.38
2022-09-26T10:02:11.159Z,14.57
2022-09-26T10:04:46.476Z,14.07
2022-09-26T10:07:13.356Z,14.30
2022-09-26T10:09:41.902Z,14.98
2022-09-26T10:12:18.200Z,13.68
2022-09-26T10:15:02.618Z,12.48
2022-09-26T10:17:29.639Z,12.63
2022-09-26T10:19:56.846Z,14.85
2022-09-26T10:22:32.484Z,13.52
2022-09-26T10:25:16.039Z,13.80
2022-09-26T10:27:50.162Z,12.65
2022-09-26T10:30:19.901Z,15.43
2022-09-26T10:32:52.771Z,13.82
2022-09-26T10:35:43.661Z,14.55
2022-09-26T10:38:27.393Z,14.45
2022-09-26T10:40:59.800Z,12.48
2022-09-26T10:43:31.302Z,13.48
2022-09-26T10:46:19.236Z,13.27
2022-09-26T10:48:52.361Z,13.45
2022-09-26T10:51:28.734Z,13.38
2022-09-26T10:54:08.755Z,13.27
2022-09-26T10:56:47.144Z,12.27
2022-09-26T10:59:24.451Z,13.48
2022-09-26T11:01:56.525Z,12.13
2022-09-26T11:04:45.799Z,13.45
2022-09-26T11:07:24.567Z,13.98
2022-09-26T11:09:53.222Z,11.98
2022-09-26T11:12:27.458Z,12.75
2022-09-26T11:14:58.610Z,14.63
2022-09-26T11:17:45.375Z,13.13
2022-09-26T11:20:27.421Z,11.68
2022-09-26T11:23:24.381Z,12.35
2022-09-26T11:26:12.906Z,14.50
2022-09-26T11:28:50.180Z,12.57
2022-09-26T11:31:28.390Z,13.93
2022-09-26T11:33:59.551Z,12.48
2022-09-26T11:37:04.039Z,13.52
2022-09-26T11:40:08.554Z,11.55
2022-09-26T11:42:49.077Z,12.70
2022-09-26T11:45:45.263Z,12.88
2022-09-26T11:48:19.928Z,13.45
2022-09-26T11:51:40.316Z,11.13
2022-09-26T11:54:45.715Z,11.02
2022-09-26T11:57:24.610Z,13.65
2022-09-26T12:00:06.581Z,13.30
2022-09-26T12:02:40.001Z,12.23
2022-09-26T12:05:30.416Z,9.85
2022-09-26T12:08:19.253Z,11.13
2022-09-26T12:10:56.717Z,12.35
2022-09-26T12:13:41.697Z,11.43
2022-09-26T12:16:41.108Z,10.85
2022-09-26T12:19:20.160Z,12.55
2022-09-26T12:22:27.616Z,12.55
2022-09-26T12:25:07.401Z,11.32
2022-09-26T12:28:08.138Z,12.70
2022-09-26T12:31:01.262Z,13.82
2022-09-26T12:33:50.050Z,12.68
2022-09-26T12:36:23.053Z,11.07
2022-09-26T12:38:57.007Z,12.40
2022-09-26T12:41:52.693Z,13.23
2022-09-26T12:44:31.677Z,13.40
2022-09-26T12:47:10.731Z,11.65
2022-09-26T12:49:40.367Z,13.77
2022-09-26T12:52:21.544Z,15.20
2022-09-26T12:55:13.045Z,13.57
2022-09-26T12:57:51.176Z,13.32
2022-09-26T13:00:23.139Z,11.85
2022-09-26T13:03:15.952Z,12.32
2022-09-26T13:05:51.785Z,12.35
2022-09-26T13:08:37.934Z,10.95
2022-09-26T13:11:32.681Z,13.07
2022-09-26T13:14:13.374Z,11.52
2022-09-26T13:17:09.881Z,11.82
2022-09-26T13:19:48.309Z,9.57
2022-09-26T13:22:31.655Z,8.48
2022-09-26T13:25:17.506Z,8.32
2022-09-26T13:27:51.399Z,7.53
2022-09-26T13:30:23.371Z,8.45
2022-09-26T13:33:20.413Z,9.55
2022-09-26T13:35:51.205Z,8.52
2022-09-26T13:38:36.001Z,8.88
2022-09-26T13:41:32.836Z,10.60
2022-09-26T13:44:37.867Z,10.25
2022-09-26T13:47:13.494Z,9.95
2022-09-26T13:50:19.847Z,9.18
2022-09-26T13:53:16.123Z,10.27
2022-09-26T13:55:43.548Z,11.73
2022-09-26T13:58:21.725Z,10.25
2022-09-26T14:00:53.152Z,12.10
2022-09-26T14:06:06.703Z,10.88
2022-09-26T14:11:19.409Z,10.65
2022-09-26T14:14:18.295Z,10.52
2022-09-26T14:16:46.979Z,11.05
2022-09-26T14:19:35.738Z,8.95
2022-09-26T14:22:05.790Z,11.80
2022-09-26T14:24:34.698Z,10.80
2022-09-26T14:27:12.743Z,12.32
2022-09-26T14:29:45.092Z,11.38
2022-09-26T14:32:18.823Z,11.52
2022-09-26T14:34:54.812Z,9.98
2022-09-26T14:37:24.442Z,13.10
2022-09-26T14:40:11.780Z,12.15
2022-09-26T14:43:00.175Z,11.43
2022-09-26T14:45:43.862Z,9.95
2022-09-26T14:48:17.091Z,9.98
2022-09-26T14:51:01.514Z,9.38
2022-09-26T14:53:42.104Z,11.48
2022-09-26T14:56:29.900Z,13.13
2022-09-26T14:59:26.261Z,9.65
2022-09-26T15:02:11.540Z,11.77
2022-09-26T15:04:39.084Z,14.30
2022-09-26T15:07:16.274Z,12.32
2022-09-26T15:09:48.912Z,14.57
2022-09-26T15:12:26.183Z,14.27
2022-09-26T15:15:05.138Z,15.60
2022-09-26T15:17:37.146Z,15.68
2022-09-26T15:20:09.543Z,14.52
2022-09-26T15:22:44.354Z,14.82
2022-09-26T15:25:31.180Z,13.73
2022-09-26T15:28:01.069Z,11.77
2022-09-26T15:30:38.541Z,11.75
2022-09-26T15:33:06.028Z,11.07
2022-09-26T15:35:34.079Z,10.25
2022-09-26T15:38:03.797Z,8.98
2022-09-26T15:40:32.192Z,9.55
2022-09-26T15:43:09.592Z,9.65
2022-09-26T15:45:59.755Z,9.95
2022-09-26T15:48:33.538Z,7.07
2022-09-26T15:51:15.972Z,7.75
2022-09-26T15:53:50.676Z,7.82
2022-09-26T15:56:27.652Z,7.38
2022-09-26T15:58:57.131Z,6.70
2022-09-26T16:01:28.234Z,4.07
2022-09-26T16:04:20.505Z,3.63
2022-09-26T16:06:57.500Z,2.28
2022-09-26T16:09:34.174Z,2.25
2022-09-26T16:12:05.808Z,2.30
2022-09-26T16:14:42.899Z,2.20
2022-09-26T16:17:26.384Z,2.22
2022-09-26T16:19:55.669Z,2.47
2022-09-26T16:22:29.418Z,1.83
2022-09-26T16:25:25.519Z,2.10
2022-09-26T16:28:00.152Z,1.98
2022-09-26T16:30:30.113Z,2.20
2022-09-26T16:33:17.502Z,2.08
2022-09-26T16:35:46.658Z,2.08
2022-09-26T16:38:34.915Z,2.15
2022-09-26T16:41:42.427Z,1.90
2022-09-26T16:44:35.300Z,2.72
2022-09-26T16:47:06.032Z,1.70
2022-09-26T16:49:45.775Z,1.70
2022-09-26T16:52:35.749Z,2.00
2022-09-26T16:55:08.847Z,1.65
2022-09-26T16:57:39.149Z,2.00
2022-09-26T17:02:52.777Z,1.73
2022-09-26T17:05:22.618Z,1.95
2022-09-26T17:07:50.071Z,1.98
2022-09-26T17:10:19.774Z,1.83
2022-09-26T17:12:53.610Z,2.10
2022-09-26T17:15:30.054Z,2.03
2022-09-26T17:17:58.397Z,2.20
2022-09-26T17:20:25.178Z,2.00
2022-09-26T17:22:51.833Z,1.92
2022-09-26T17:25:18.867Z,1.77
2022-09-26T17:27:49.343Z,2.15
2022-09-26T17:30:19.254Z,2.25
2022-09-26T17:32:49.904Z,1.63
2022-09-26T17:35:19.538Z,1.70
2022-09-26T17:37:46.521Z,2.00
2022-09-26T17:40:18.981Z,2.00
2022-09-26T17:42:46.352Z,2.05
2022-09-26T17:45:13.023Z,1.92
2022-09-26T17:47:40.411Z,1.55
2022-09-26T17:50:10.109Z,1.90
2022-09-26T17:52:38.322Z,1.90
2022-09-26T17:55:07.686Z,1.58
2022-09-26T17:57:39.514Z,1.92
2022-09-26T18:00:11.261Z,2.42
2022-09-26T18:02:44.609Z,2.58
2022-09-26T18:05:20.658Z,2.22
2022-09-26T18:07:52.411Z,1.50
2022-09-26T18:10:24.991Z,2.20
2022-09-26T18:12:57.833Z,2.38
2022-09-26T18:15:26.128Z,2.33
2022-09-26T18:17:53.393Z,2.10
2022-09-26T18:20:28.292Z,2.03
2022-09-26T18:22:55.009Z,2.22
2022-09-26T18:25:26.971Z,2.78
2022-09-26T18:27:56.877Z,1.85
2022-09-26T18:30:24.001Z,2.90
2022-09-26T18:32:56.371Z,2.08
2022-09-26T18:35:27.326Z,2.47
2022-09-26T18:37:57.222Z,2.30
2022-09-26T18:40:25.066Z,1.67
2022-09-26T18:42:57.200Z,1.98
2022-09-26T18:45:36.216Z,2.53
2022-09-26T18:48:08.274Z,1.80
2022-09-26T18:50:39.782Z,1.70
2022-09-26T18:53:34.656Z,1.85
2022-09-26T18:56:19.818Z,1.67
2022-09-26T18:58:48.383Z,2.05
2022-09-26T19:01:21.115Z,1.75
2022-09-26T19:03:51.097Z,1.92
2022-09-26T19:06:21.179Z,1.50
2022-09-26T19:08:51.368Z,1.75
2022-09-26T19:11:23.642Z,1.80
2022-09-26T19:13:52.762Z,1.83
2022-09-26T19:16:20.316Z,1.98
2022-09-26T19:18:47.541Z,1.48
2022-09-26T19:21:38.360Z,1.90
2022-09-26T19:24:32.336Z,1.92
2022-09-26T19:27:30.109Z,1.70
2022-09-26T19:30:04.346Z,1.40
2022-09-26T19:32:32.416Z,1.83
2022-09-26T19:35:16.159Z,1.58
2022-09-26T19:37:43.408Z,1.83
2022-09-26T19:40:14.593Z,2.05
2022-09-26T19:42:42.373Z,1.33
2022-09-26T19:45:11.091Z,1.75
2022-09-26T19:47:45.684Z,1.88
2022-09-26T19:50:18.042Z,1.65
2022-09-26T19:52:45.153Z,1.58
2022-09-26T19:55:21.353Z,1.50
2022-09-26T19:57:48.073Z,1.17
2022-09-26T20:00:15.519Z,1.08
2022-09-26T20:02:42.711Z,1.40
2022-09-26T20:05:20.240Z,1.80
2022-09-26T20:07:49.387Z,1.55
2022-09-26T20:10:19.043Z,1.80
2022-09-26T20:12:46.940Z,1.73
2022-09-26T20:15:15.192Z,1.58
2022-09-26T20:17:44.625Z,1.65
2022-09-26T20:20:16.551Z,1.63
2022-09-26T20:22:44.201Z,1.73
2022-09-26T20:25:17.214Z,2.05
2022-09-26T20:27:44.000Z,1.98
2022-09-26T20:30:33.257Z,2.15
2022-09-26T20:33:00.123Z,1.75
2022-09-26T20:35:35.599Z,2.00
2022-09-26T20:38:33.735Z,1.73
2022-09-26T20:41:13.325Z,2.35
2022-09-26T20:43:43.514Z,1.80
2022-09-26T20:46:11.738Z,1.90
2022-09-26T20:48:42.168Z,1.77
2022-09-26T20:51:19.127Z,1.95
2022-09-26T20:53:45.907Z,1.75
2022-09-26T20:56:21.131Z,1.92
2022-09-26T20:58:48.551Z,2.03
2022-09-26T21:01:17.573Z,2.00
2022-09-26T21:03:51.634Z,2.50
2022-09-26T21:06:25.045Z,2.50
2022-09-26T21:08:53.773Z,2.05
2022-09-26T21:11:22.992Z,2.85
2022-09-26T21:13:52.204Z,2.50
2022-09-26T21:16:21.642Z,2.08
2022-09-26T21:18:51.527Z,2.13
2022-09-26T21:21:30.409Z,2.50
2022-09-26T21:23:59.599Z,2.65
2022-09-26T21:26:29.989Z,2.42
2022-09-26T21:28:58.822Z,2.50
2022-09-26T21:31:31.912Z,2.35
2022-09-26T21:33:59.969Z,2.13
2022-09-26T21:36:34.702Z,2.55
2022-09-26T21:39:02.317Z,2.20
2022-09-26T21:41:31.239Z,2.65
2022-09-26T21:44:03.992Z,2.50
2022-09-26T21:46:31.114Z,2.33
2022-09-26T21:48:58.035Z,3.10
2022-09-26T21:51:28.567Z,2.47
2022-09-26T21:54:03.084Z,2.78
2022-09-26T21:56:35.651Z,2.83
2022-09-26T21:59:06.410Z,2.50
2022-09-26T22:01:33.103Z,2.60
2022-09-26T22:04:01.740Z,2.90
2022-09-26T22:06:28.468Z,2.97
2022-09-26T22:08:55.105Z,2.72
2022-09-26T22:11:22.145Z,2.45
2022-09-26T22:13:48.853Z,2.85
2022-09-26T22:16:15.795Z,3.20
2022-09-26T22:18:42.698Z,2.92
2022-09-26T22:21:11.043Z,2.90
2022-09-26T22:23:38.401Z,2.75
2022-09-26T22:26:05.893Z,3.13
2022-09-26T22:28:32.893Z,3.75
2022-09-26T22:31:05.849Z,3.15
2022-09-26T22:33:33.368Z,3.67
2022-09-26T22:36:00.099Z,3.10
2022-09-26T22:38:26.735Z,3.97
2022-09-26T22:41:01.806Z,3.50
2022-09-26T22:43:29.417Z,3.65
2022-09-26T22:46:08.146Z,2.97
2022-09-26T22:48:43.053Z,3.00
2022-09-26T22:51:10.344Z,3.88
2022-09-26T22:53:38.730Z,4.20
2022-09-26T22:56:08.090Z,3.15
2022-09-26T22:58:39.039Z,3.30
2022-09-26T23:01:11.757Z,4.10
2022-09-26T23:03:39.282Z,3.22
2022-09-26T23:06:06.783Z,3.58
2022-09-26T23:08:34.714Z,3.17
2022-09-26T23:11:02.726Z,3.60
2022-09-26T23:13:31.619Z,3.42
2022-09-26T23:16:10.137Z,3.30
2022-09-26T23:18:39.461Z,3.40
2022-09-26T23:21:14.147Z,3.65
2022-09-26T23:23:43.730Z,3.40
2022-09-26T23:26:17.067Z,3.80
2022-09-26T23:28:43.723Z,3.70
2022-09-26T23:31:11.500Z,3.35
2022-09-26T23:33:38.993Z,4.00
2022-09-26T23:36:07.046Z,3.50
2022-09-26T23:38:35.605Z,3.53
2022-09-26T23:41:02.394Z,3.50
2022-09-26T23:43:30.469Z,3.65
2022-09-26T23:45:57.235Z,2.90
2022-09-26T23:48:23.844Z,3.35
2022-09-26T23:50:50.873Z,3.33
2022-09-26T23:53:17.855Z,3.65
2022-09-26T23:55:44.930Z,3.45
2022-09-26T23:58:12.444Z,4.07
